IBE0738 EHAM-LEMD
Flight info
| Callsign | IBE0738 |
|---|---|
| Flight time | 2h 11m |
| Altitude | 37000 |
| Route | WOODY N872 MEDIL DCT KOVIN DCT DUCRA UM728 RESMI UN857 DISAK DCT ARKIP DCT ARNAV DCT LMG DCT UVELI DCT OSMOB DCT ARVID T424 PPN N10 BANEV |
| Aircraft | A320/M-SDE3FGHIRWY/LB1 |
Departure
| Time | 2026-05-05 18:34 |
|---|---|
| Airport | Amsterdam Airport Schiphol (EHAM) |
Arrival
| Time | 2026-05-05 20:45 |
|---|---|
| Airport | Adolfo Suárez Madrid–Barajas Airport (LEMD) |
| Time | Latitude | Longitude | Altitude | Speed | Heading |
|---|---|---|---|---|---|
| 2026-05-05 17:30 | 52.31003 | 4.77118 | -1 ft | 0 kts | 183° |
| 2026-05-05 18:12 | 52.31008 | 4.77118 | -1 ft | 3 kts | 184° |
| 2026-05-05 18:12 | 52.31029 | 4.77122 | -1 ft | 3 kts | 190° |
| 2026-05-05 18:13 | 52.31050 | 4.77130 | -1 ft | 3 kts | 202° |
| 2026-05-05 18:13 | 52.31068 | 4.77146 | -1 ft | 3 kts | 226° |
| 2026-05-05 18:13 | 52.31077 | 4.77170 | -1 ft | 2 kts | 273° |
| 2026-05-05 18:13 | 52.31077 | 4.77179 | -1 ft | 0 kts | 273° |
| 2026-05-05 18:18 | 52.31077 | 4.77156 | -1 ft | 5 kts | 273° |
| 2026-05-05 18:19 | 52.31081 | 4.77041 | -1 ft | 10 kts | 272° |
| 2026-05-05 18:19 | 52.31126 | 4.76939 | -1 ft | 14 kts | 348° |
| 2026-05-05 18:19 | 52.31203 | 4.76996 | -1 ft | 14 kts | 33° |
| 2026-05-05 18:19 | 52.31276 | 4.77077 | -1 ft | 12 kts | 37° |
| 2026-05-05 18:20 | 52.31294 | 4.77213 | -1 ft | 15 kts | 92° |
| 2026-05-05 18:20 | 52.31288 | 4.77378 | -1 ft | 11 kts | 93° |
| 2026-05-05 18:20 | 52.31258 | 4.77496 | -1 ft | 12 kts | 154° |
| 2026-05-05 18:20 | 52.31147 | 4.77497 | -1 ft | 19 kts | 182° |
| 2026-05-05 18:21 | 52.31025 | 4.77484 | -1 ft | 16 kts | 184° |
| 2026-05-05 18:21 | 52.30916 | 4.77474 | -1 ft | 15 kts | 183° |
| 2026-05-05 18:21 | 52.30818 | 4.77467 | -1 ft | 13 kts | 182° |
| 2026-05-05 18:21 | 52.30735 | 4.77460 | -1 ft | 11 kts | 183° |
| 2026-05-05 18:22 | 52.30662 | 4.77444 | -1 ft | 12 kts | 203° |
| 2026-05-05 18:22 | 52.30590 | 4.77290 | -1 ft | 18 kts | 237° |
| 2026-05-05 18:22 | 52.30526 | 4.77124 | -1 ft | 16 kts | 238° |
| 2026-05-05 18:22 | 52.30474 | 4.76987 | -1 ft | 13 kts | 238° |
| 2026-05-05 18:23 | 52.30430 | 4.76873 | -1 ft | 11 kts | 238° |
| 2026-05-05 18:23 | 52.30391 | 4.76773 | -1 ft | 10 kts | 238° |
| 2026-05-05 18:23 | 52.30358 | 4.76685 | -1 ft | 8 kts | 238° |
| 2026-05-05 18:23 | 52.30322 | 4.76590 | -1 ft | 15 kts | 237° |
| 2026-05-05 18:24 | 52.30250 | 4.76406 | -1 ft | 20 kts | 238° |
| 2026-05-05 18:24 | 52.30180 | 4.76220 | -1 ft | 18 kts | 238° |
| 2026-05-05 18:24 | 52.30116 | 4.76052 | -1 ft | 17 kts | 238° |
| 2026-05-05 18:24 | 52.30057 | 4.75902 | -1 ft | 15 kts | 237° |
| 2026-05-05 18:25 | 52.30005 | 4.75767 | -1 ft | 13 kts | 238° |
| 2026-05-05 18:25 | 52.29989 | 4.75724 | -1 ft | 13 kts | 238° |
| 2026-05-05 18:25 | 52.29892 | 4.75469 | -1 ft | 14 kts | 238° |
| 2026-05-05 18:25 | 52.29845 | 4.75347 | -1 ft | 12 kts | 238° |
| 2026-05-05 18:26 | 52.29834 | 4.75232 | -1 ft | 10 kts | 284° |
| 2026-05-05 18:26 | 52.29868 | 4.75148 | -1 ft | 9 kts | 312° |
| 2026-05-05 18:26 | 52.29913 | 4.75066 | -1 ft | 11 kts | 309° |
| 2026-05-05 18:26 | 52.29964 | 4.74967 | -1 ft | 12 kts | 310° |
| 2026-05-05 18:27 | 52.30023 | 4.74857 | -1 ft | 14 kts | 313° |
| 2026-05-05 18:27 | 52.30086 | 4.74745 | 2 ft | 12 kts | 311° |
| 2026-05-05 18:27 | 52.30128 | 4.74665 | 9 ft | 6 kts | 311° |
| 2026-05-05 18:27 | 52.30161 | 4.74608 | 10 ft | 8 kts | 312° |
| 2026-05-05 18:28 | 52.30252 | 4.74435 | 10 ft | 11 kts | 311° |
| 2026-05-05 18:28 | 52.30294 | 4.74356 | 7 ft | 10 kts | 311° |
| 2026-05-05 18:28 | 52.30342 | 4.74265 | -1 ft | 11 kts | 311° |
| 2026-05-05 18:29 | 52.30383 | 4.74188 | -1 ft | 9 kts | 311° |
| 2026-05-05 18:29 | 52.30418 | 4.74119 | -1 ft | 7 kts | 301° |
| 2026-05-05 18:29 | 52.30421 | 4.74048 | -1 ft | 6 kts | 255° |
| 2026-05-05 18:29 | 52.30411 | 4.73996 | -1 ft | 0 kts | 257° |
| 2026-05-05 18:31 | 52.30406 | 4.73943 | -1 ft | 12 kts | 268° |
| 2026-05-05 18:31 | 52.30410 | 4.73825 | -3 ft | 10 kts | 274° |
| 2026-05-05 18:31 | 52.30448 | 4.73761 | -3 ft | 8 kts | 355° |
| 2026-05-05 18:31 | 52.30462 | 4.73762 | -3 ft | 0 kts | 2° |
| 2026-05-05 18:33 | 52.30465 | 4.73762 | -3 ft | 3 kts | 2° |
| 2026-05-05 18:33 | 52.30538 | 4.73767 | -3 ft | 20 kts | 3° |
| 2026-05-05 18:33 | 52.30873 | 4.73800 | -1 ft | 80 kts | 3° |
| 2026-05-05 18:33 | 52.31623 | 4.73868 | -2 ft | 134 kts | 3° |
| 2026-05-05 18:34 | 52.32317 | 4.73937 | 24 ft | 160 kts | 2° |
| 2026-05-05 18:34 | 52.33425 | 4.74062 | 629 ft | 159 kts | 11° |
| 2026-05-05 18:34 | 52.34464 | 4.74614 | 1380 ft | 156 kts | 22° |
| 2026-05-05 18:34 | 52.35465 | 4.75278 | 1943 ft | 163 kts | 23° |
| 2026-05-05 18:35 | 52.36576 | 4.76064 | 2232 ft | 185 kts | 30° |
| 2026-05-05 18:35 | 52.37430 | 4.77756 | 2638 ft | 208 kts | 71° |
| 2026-05-05 18:35 | 52.37400 | 4.80173 | 3383 ft | 220 kts | 97° |
| 2026-05-05 18:35 | 52.37024 | 4.82619 | 4163 ft | 227 kts | 109° |
| 2026-05-05 18:36 | 52.35958 | 4.84591 | 4874 ft | 246 kts | 147° |
| 2026-05-05 18:36 | 52.34221 | 4.85406 | 5223 ft | 276 kts | 172° |
| 2026-05-05 18:36 | 52.32248 | 4.85517 | 5744 ft | 290 kts | 180° |
| 2026-05-05 18:36 | 52.30244 | 4.85374 | 5892 ft | 286 kts | 183° |
| 2026-05-05 18:37 | 52.28268 | 4.85164 | 5918 ft | 285 kts | 183° |
| 2026-05-05 18:37 | 52.26291 | 4.84975 | 5915 ft | 283 kts | 182° |
| 2026-05-05 18:37 | 52.24333 | 4.84832 | 5921 ft | 281 kts | 181° |
| 2026-05-05 18:37 | 52.22373 | 4.84736 | 5921 ft | 282 kts | 181° |
| 2026-05-05 18:38 | 52.20402 | 4.84677 | 5919 ft | 285 kts | 180° |
| 2026-05-05 18:38 | 52.18427 | 4.84637 | 5913 ft | 282 kts | 180° |
| 2026-05-05 18:38 | 52.16433 | 4.84602 | 6356 ft | 289 kts | 181° |
| 2026-05-05 18:38 | 52.14435 | 4.84567 | 7307 ft | 287 kts | 181° |
| 2026-05-05 18:39 | 52.12434 | 4.84529 | 8177 ft | 288 kts | 181° |
| 2026-05-05 18:39 | 52.10424 | 4.84487 | 9023 ft | 291 kts | 181° |
| 2026-05-05 18:39 | 52.08390 | 4.84444 | 9830 ft | 294 kts | 181° |
| 2026-05-05 18:39 | 52.06295 | 4.84399 | 10255 ft | 311 kts | 181° |
| 2026-05-05 18:40 | 52.04050 | 4.84294 | 10454 ft | 335 kts | 185° |
| 2026-05-05 18:40 | 52.01687 | 4.83615 | 10667 ft | 354 kts | 196° |
| 2026-05-05 18:40 | 51.99360 | 4.82176 | 11202 ft | 362 kts | 206° |
| 2026-05-05 18:40 | 51.97090 | 4.80368 | 11871 ft | 365 kts | 206° |
| 2026-05-05 18:41 | 51.94793 | 4.78558 | 12553 ft | 369 kts | 206° |
| 2026-05-05 18:41 | 51.92466 | 4.76740 | 12824 ft | 373 kts | 205° |
| 2026-05-05 18:41 | 51.90125 | 4.74920 | 12888 ft | 374 kts | 205° |
| 2026-05-05 18:41 | 51.87775 | 4.73094 | 13012 ft | 377 kts | 205° |
| 2026-05-05 18:42 | 51.85407 | 4.71254 | 13755 ft | 379 kts | 205° |
| 2026-05-05 18:42 | 51.83023 | 4.69398 | 14358 ft | 382 kts | 205° |
| 2026-05-05 18:42 | 51.80620 | 4.67528 | 14951 ft | 385 kts | 205° |
| 2026-05-05 18:42 | 51.78200 | 4.65648 | 15549 ft | 388 kts | 205° |
| 2026-05-05 18:43 | 51.75761 | 4.63753 | 16159 ft | 390 kts | 205° |
| 2026-05-05 18:43 | 51.73303 | 4.61850 | 16723 ft | 393 kts | 205° |
| 2026-05-05 18:43 | 51.70828 | 4.59933 | 17285 ft | 396 kts | 204° |
| 2026-05-05 18:43 | 51.68336 | 4.58003 | 17841 ft | 399 kts | 204° |
| 2026-05-05 18:44 | 51.65826 | 4.56061 | 18389 ft | 401 kts | 204° |
| 2026-05-05 18:44 | 51.63304 | 4.54112 | 18890 ft | 403 kts | 205° |
| 2026-05-05 18:44 | 51.60774 | 4.52158 | 19421 ft | 404 kts | 205° |
| 2026-05-05 18:44 | 51.58241 | 4.50205 | 19959 ft | 404 kts | 205° |
| 2026-05-05 18:45 | 51.55704 | 4.48251 | 20498 ft | 404 kts | 205° |
| 2026-05-05 18:45 | 51.53167 | 4.46298 | 21038 ft | 404 kts | 205° |
| 2026-05-05 18:45 | 51.50625 | 4.44345 | 21550 ft | 405 kts | 205° |
| 2026-05-05 18:45 | 51.48076 | 4.42388 | 21986 ft | 408 kts | 205° |
| 2026-05-05 18:46 | 51.45510 | 4.40424 | 22455 ft | 409 kts | 205° |
| 2026-05-05 18:46 | 51.42935 | 4.38456 | 22921 ft | 411 kts | 205° |
| 2026-05-05 18:46 | 51.40343 | 4.36475 | 23342 ft | 414 kts | 206° |
| 2026-05-05 18:46 | 51.37769 | 4.34511 | 23700 ft | 416 kts | 205° |
| 2026-05-05 18:47 | 51.35112 | 4.32495 | 24091 ft | 417 kts | 205° |
| 2026-05-05 18:47 | 51.32518 | 4.30529 | 24407 ft | 420 kts | 205° |
| 2026-05-05 18:47 | 51.29872 | 4.28523 | 24733 ft | 422 kts | 205° |
| 2026-05-05 18:47 | 51.27216 | 4.26508 | 25089 ft | 423 kts | 205° |
| 2026-05-05 18:48 | 51.24549 | 4.24487 | 25404 ft | 426 kts | 204° |
| 2026-05-05 18:48 | 51.21860 | 4.22453 | 25663 ft | 430 kts | 204° |
| 2026-05-05 18:48 | 51.19152 | 4.20407 | 25864 ft | 431 kts | 204° |
| 2026-05-05 18:48 | 51.16430 | 4.18405 | 25886 ft | 431 kts | 201° |
| 2026-05-05 18:49 | 51.13614 | 4.16804 | 25886 ft | 430 kts | 198° |
| 2026-05-05 18:49 | 51.10782 | 4.15251 | 25885 ft | 430 kts | 198° |
| 2026-05-05 18:49 | 51.07956 | 4.13702 | 25884 ft | 430 kts | 198° |
| 2026-05-05 18:49 | 51.05123 | 4.12150 | 26004 ft | 432 kts | 198° |
| 2026-05-05 18:50 | 51.02278 | 4.10591 | 26362 ft | 433 kts | 198° |
| 2026-05-05 18:50 | 50.99425 | 4.09028 | 26697 ft | 435 kts | 198° |
| 2026-05-05 18:50 | 50.96560 | 4.07463 | 27020 ft | 436 kts | 198° |
| 2026-05-05 18:50 | 50.93683 | 4.05898 | 27331 ft | 438 kts | 198° |
| 2026-05-05 18:51 | 50.90796 | 4.04334 | 27630 ft | 439 kts | 198° |
| 2026-05-05 18:51 | 50.87902 | 4.02761 | 27926 ft | 441 kts | 198° |
| 2026-05-05 18:51 | 50.85016 | 4.01085 | 28217 ft | 443 kts | 199° |
| 2026-05-05 18:51 | 50.82151 | 3.99280 | 28504 ft | 444 kts | 201° |
| 2026-05-05 18:52 | 50.79290 | 3.97395 | 28758 ft | 447 kts | 201° |
| 2026-05-05 18:52 | 50.76423 | 3.95480 | 29045 ft | 448 kts | 201° |
| 2026-05-05 18:52 | 50.73556 | 3.93577 | 29438 ft | 446 kts | 200° |
| 2026-05-05 18:52 | 50.70692 | 3.91707 | 29839 ft | 445 kts | 200° |
| 2026-05-05 18:53 | 50.67826 | 3.89871 | 30199 ft | 444 kts | 200° |
| 2026-05-05 18:53 | 50.64968 | 3.88062 | 30543 ft | 442 kts | 199° |
| 2026-05-05 18:53 | 50.62117 | 3.86267 | 30888 ft | 441 kts | 199° |
| 2026-05-05 18:53 | 50.59274 | 3.84475 | 31232 ft | 439 kts | 199° |
| 2026-05-05 18:54 | 50.56445 | 3.82678 | 31546 ft | 439 kts | 200° |
| 2026-05-05 18:54 | 50.53629 | 3.80819 | 31839 ft | 439 kts | 201° |
| 2026-05-05 18:54 | 50.50830 | 3.78905 | 32164 ft | 438 kts | 201° |
| 2026-05-05 18:54 | 50.48046 | 3.76970 | 32507 ft | 437 kts | 201° |
| 2026-05-05 18:55 | 50.45274 | 3.75038 | 32847 ft | 436 kts | 201° |
| 2026-05-05 18:55 | 50.42503 | 3.73118 | 33189 ft | 434 kts | 201° |
| 2026-05-05 18:55 | 50.39739 | 3.71226 | 33527 ft | 433 kts | 201° |
| 2026-05-05 18:55 | 50.36978 | 3.69355 | 33867 ft | 432 kts | 201° |
| 2026-05-05 18:56 | 50.34259 | 3.67522 | 34137 ft | 431 kts | 200° |
| 2026-05-05 18:56 | 50.31501 | 3.65668 | 34368 ft | 432 kts | 201° |
| 2026-05-05 18:56 | 50.28707 | 3.63788 | 34597 ft | 432 kts | 201° |
| 2026-05-05 18:56 | 50.25984 | 3.61950 | 34782 ft | 432 kts | 201° |
| 2026-05-05 18:57 | 50.20457 | 3.58219 | 34849 ft | 432 kts | 201° |
| 2026-05-05 18:57 | 50.14937 | 3.54499 | 34850 ft | 432 kts | 201° |
| 2026-05-05 18:58 | 50.09404 | 3.50797 | 34843 ft | 433 kts | 200° |
| 2026-05-05 18:58 | 50.03862 | 3.47102 | 34844 ft | 433 kts | 201° |
| 2026-05-05 18:59 | 49.98322 | 3.43404 | 34841 ft | 433 kts | 200° |
| 2026-05-05 18:59 | 49.92778 | 3.39711 | 34841 ft | 433 kts | 201° |
| 2026-05-05 19:00 | 49.87231 | 3.36016 | 34839 ft | 434 kts | 200° |
| 2026-05-05 19:00 | 49.81674 | 3.32342 | 34837 ft | 434 kts | 200° |
| 2026-05-05 19:01 | 49.76117 | 3.28675 | 34835 ft | 434 kts | 200° |
| 2026-05-05 19:01 | 49.70555 | 3.25020 | 34829 ft | 434 kts | 200° |
| 2026-05-05 19:02 | 49.64967 | 3.21351 | 34832 ft | 437 kts | 200° |
| 2026-05-05 19:02 | 49.59364 | 3.17681 | 34832 ft | 438 kts | 200° |
| 2026-05-05 19:03 | 49.53754 | 3.14016 | 34827 ft | 438 kts | 200° |
| 2026-05-05 19:03 | 49.48197 | 3.10181 | 34831 ft | 440 kts | 207° |
| 2026-05-05 19:04 | 49.43085 | 3.05045 | 34825 ft | 443 kts | 211° |
| 2026-05-05 19:04 | 49.37954 | 2.99819 | 34825 ft | 443 kts | 211° |
| 2026-05-05 19:05 | 49.32812 | 2.94618 | 34829 ft | 443 kts | 211° |
| 2026-05-05 19:05 | 49.28146 | 2.88410 | 34825 ft | 446 kts | 221° |
| 2026-05-05 19:06 | 49.23651 | 2.81842 | 34830 ft | 448 kts | 221° |
| 2026-05-05 19:06 | 49.19131 | 2.75263 | 34837 ft | 449 kts | 221° |
| 2026-05-05 19:07 | 49.14609 | 2.68690 | 34835 ft | 449 kts | 221° |
| 2026-05-05 19:07 | 49.09685 | 2.63013 | 34839 ft | 441 kts | 201° |
| 2026-05-05 19:08 | 49.04056 | 2.59254 | 34843 ft | 442 kts | 201° |
| 2026-05-05 19:08 | 48.98395 | 2.55524 | 34837 ft | 444 kts | 201° |
| 2026-05-05 19:09 | 48.92730 | 2.51796 | 34838 ft | 444 kts | 201° |
| 2026-05-05 19:09 | 48.87059 | 2.48065 | 34837 ft | 444 kts | 201° |
| 2026-05-05 19:10 | 48.81390 | 2.44348 | 34837 ft | 444 kts | 201° |
| 2026-05-05 19:10 | 48.75719 | 2.40643 | 34839 ft | 444 kts | 201° |
| 2026-05-05 19:11 | 48.70047 | 2.36940 | 34839 ft | 444 kts | 201° |
| 2026-05-05 19:11 | 48.64371 | 2.33248 | 34838 ft | 444 kts | 201° |
| 2026-05-05 19:12 | 48.58698 | 2.29562 | 34837 ft | 444 kts | 201° |
| 2026-05-05 19:12 | 48.52986 | 2.26035 | 34836 ft | 442 kts | 193° |
| 2026-05-05 19:13 | 48.47020 | 2.23818 | 34833 ft | 442 kts | 192° |
| 2026-05-05 19:13 | 48.41043 | 2.21649 | 34839 ft | 442 kts | 192° |
| 2026-05-05 19:14 | 48.35068 | 2.19489 | 34832 ft | 442 kts | 192° |
| 2026-05-05 19:14 | 48.29130 | 2.17346 | 34833 ft | 442 kts | 192° |
| 2026-05-05 19:15 | 48.23156 | 2.15180 | 34837 ft | 442 kts | 192° |
| 2026-05-05 19:15 | 48.17180 | 2.13023 | 35085 ft | 442 kts | 193° |
| 2026-05-05 19:16 | 48.14185 | 2.11950 | 35330 ft | 442 kts | 193° |
| 2026-05-05 19:16 | 48.11196 | 2.10881 | 35560 ft | 442 kts | 193° |
| 2026-05-05 19:16 | 48.08209 | 2.09814 | 35788 ft | 441 kts | 193° |
| 2026-05-05 19:16 | 48.05223 | 2.08749 | 35998 ft | 441 kts | 193° |
| 2026-05-05 19:17 | 48.02234 | 2.07680 | 36207 ft | 441 kts | 193° |
| 2026-05-05 19:17 | 47.99250 | 2.06613 | 36409 ft | 441 kts | 193° |
| 2026-05-05 19:17 | 47.96263 | 2.05550 | 36605 ft | 441 kts | 193° |
| 2026-05-05 19:17 | 47.93278 | 2.04489 | 36798 ft | 441 kts | 193° |
| 2026-05-05 19:18 | 47.87288 | 2.02355 | 36869 ft | 444 kts | 193° |
| 2026-05-05 19:18 | 47.81282 | 2.00231 | 36867 ft | 444 kts | 193° |
| 2026-05-05 19:19 | 47.75279 | 1.98113 | 36838 ft | 442 kts | 193° |
| 2026-05-05 19:19 | 47.69292 | 1.96005 | 36839 ft | 442 kts | 193° |
| 2026-05-05 19:20 | 47.63350 | 1.93920 | 36840 ft | 442 kts | 193° |
| 2026-05-05 19:20 | 47.57365 | 1.91817 | 36844 ft | 442 kts | 193° |
| 2026-05-05 19:21 | 47.51378 | 1.89713 | 36855 ft | 442 kts | 193° |
| 2026-05-05 19:21 | 47.45394 | 1.87619 | 36861 ft | 442 kts | 193° |
| 2026-05-05 19:22 | 47.40381 | 1.85871 | 36873 ft | 442 kts | 193° |
| 2026-05-05 19:22 | 47.34395 | 1.83786 | 36878 ft | 442 kts | 193° |
| 2026-05-05 19:23 | 47.28413 | 1.81704 | 36875 ft | 442 kts | 193° |
| 2026-05-05 19:23 | 47.22426 | 1.79632 | 36875 ft | 442 kts | 193° |
| 2026-05-05 19:24 | 47.16653 | 1.76766 | 36875 ft | 441 kts | 201° |
| 2026-05-05 19:24 | 47.10919 | 1.73533 | 36877 ft | 441 kts | 201° |
| 2026-05-05 19:25 | 47.05183 | 1.70305 | 36893 ft | 441 kts | 201° |
| 2026-05-05 19:25 | 46.99448 | 1.67092 | 36900 ft | 441 kts | 201° |
| 2026-05-05 19:26 | 46.93708 | 1.63882 | 36906 ft | 441 kts | 201° |
| 2026-05-05 19:26 | 46.87974 | 1.60668 | 36909 ft | 442 kts | 201° |
| 2026-05-05 19:27 | 46.82234 | 1.57457 | 36908 ft | 442 kts | 201° |
| 2026-05-05 19:27 | 46.76490 | 1.54277 | 36898 ft | 442 kts | 201° |
| 2026-05-05 19:28 | 46.70740 | 1.51097 | 36896 ft | 442 kts | 201° |
| 2026-05-05 19:28 | 46.64995 | 1.47920 | 36894 ft | 442 kts | 201° |
| 2026-05-05 19:29 | 46.59246 | 1.44744 | 36898 ft | 442 kts | 201° |
| 2026-05-05 19:29 | 46.53499 | 1.41575 | 36898 ft | 442 kts | 201° |
| 2026-05-05 19:30 | 46.47751 | 1.38416 | 36906 ft | 441 kts | 201° |
| 2026-05-05 19:30 | 46.42008 | 1.35269 | 36904 ft | 441 kts | 201° |
| 2026-05-05 19:31 | 46.36264 | 1.32120 | 36912 ft | 441 kts | 201° |
| 2026-05-05 19:31 | 46.30522 | 1.28989 | 36914 ft | 441 kts | 201° |
| 2026-05-05 19:32 | 46.24785 | 1.25865 | 36919 ft | 441 kts | 201° |
| 2026-05-05 19:32 | 46.19087 | 1.22771 | 36926 ft | 440 kts | 201° |
| 2026-05-05 19:33 | 46.13351 | 1.19663 | 36925 ft | 440 kts | 201° |
| 2026-05-05 19:33 | 46.07616 | 1.16552 | 36938 ft | 440 kts | 201° |
| 2026-05-05 19:34 | 46.01878 | 1.13457 | 36935 ft | 441 kts | 201° |
| 2026-05-05 19:35 | 45.93264 | 1.08814 | 36936 ft | 441 kts | 201° |
| 2026-05-05 19:35 | 45.87523 | 1.05731 | 36928 ft | 441 kts | 201° |
| 2026-05-05 19:36 | 45.81875 | 1.02344 | 36929 ft | 440 kts | 211° |
| 2026-05-05 19:36 | 45.77008 | 0.97063 | 36936 ft | 439 kts | 220° |
| 2026-05-05 19:37 | 45.72322 | 0.91440 | 36938 ft | 440 kts | 220° |
| 2026-05-05 19:37 | 45.67626 | 0.85837 | 36938 ft | 440 kts | 220° |
| 2026-05-05 19:38 | 45.62926 | 0.80235 | 36946 ft | 440 kts | 220° |
| 2026-05-05 19:38 | 45.58228 | 0.74636 | 36952 ft | 440 kts | 220° |
| 2026-05-05 19:39 | 45.53519 | 0.69041 | 36948 ft | 440 kts | 220° |
| 2026-05-05 19:39 | 45.48804 | 0.63460 | 36943 ft | 441 kts | 220° |
| 2026-05-05 19:40 | 45.44087 | 0.57889 | 36944 ft | 441 kts | 220° |
| 2026-05-05 19:40 | 45.39365 | 0.52324 | 36952 ft | 441 kts | 220° |
| 2026-05-05 19:41 | 45.34639 | 0.46767 | 36948 ft | 441 kts | 220° |
| 2026-05-05 19:41 | 45.29915 | 0.41223 | 36953 ft | 440 kts | 220° |
| 2026-05-05 19:42 | 45.25185 | 0.35686 | 36959 ft | 441 kts | 220° |
| 2026-05-05 19:42 | 45.20451 | 0.30158 | 36949 ft | 441 kts | 220° |
| 2026-05-05 19:43 | 45.15714 | 0.24638 | 36951 ft | 441 kts | 220° |
| 2026-05-05 19:43 | 45.11004 | 0.19158 | 36957 ft | 441 kts | 220° |
| 2026-05-05 19:44 | 45.06263 | 0.13657 | 36957 ft | 441 kts | 220° |
| 2026-05-05 19:44 | 45.01520 | 0.08162 | 36957 ft | 441 kts | 220° |
| 2026-05-05 19:45 | 44.96776 | 0.02679 | 36962 ft | 440 kts | 220° |
| 2026-05-05 19:45 | 44.92033 | -0.02790 | 36973 ft | 440 kts | 220° |
| 2026-05-05 19:46 | 44.87285 | -0.08243 | 36966 ft | 440 kts | 220° |
| 2026-05-05 19:46 | 44.82534 | -0.13699 | 36965 ft | 440 kts | 220° |
| 2026-05-05 19:47 | 44.77781 | -0.19150 | 36968 ft | 441 kts | 220° |
| 2026-05-05 19:47 | 44.73027 | -0.24588 | 36968 ft | 441 kts | 220° |
| 2026-05-05 19:48 | 44.68261 | -0.30013 | 36967 ft | 441 kts | 220° |
| 2026-05-05 19:48 | 44.63295 | -0.35040 | 36966 ft | 442 kts | 209° |
| 2026-05-05 19:49 | 44.57843 | -0.39031 | 36964 ft | 442 kts | 209° |
| 2026-05-05 19:49 | 44.52399 | -0.43020 | 36973 ft | 442 kts | 209° |
| 2026-05-05 19:50 | 44.46958 | -0.47020 | 36974 ft | 441 kts | 209° |
| 2026-05-05 19:50 | 44.41518 | -0.51005 | 36965 ft | 441 kts | 209° |
| 2026-05-05 19:51 | 44.36079 | -0.54981 | 36981 ft | 441 kts | 209° |
| 2026-05-05 19:51 | 44.30646 | -0.58935 | 36983 ft | 440 kts | 209° |
| 2026-05-05 19:52 | 44.25255 | -0.62853 | 36985 ft | 440 kts | 209° |
| 2026-05-05 19:52 | 44.19833 | -0.66790 | 36981 ft | 439 kts | 209° |
| 2026-05-05 19:53 | 44.14416 | -0.70723 | 36987 ft | 439 kts | 209° |
| 2026-05-05 19:53 | 44.09007 | -0.74646 | 36987 ft | 438 kts | 209° |
| 2026-05-05 19:54 | 44.03591 | -0.78546 | 36991 ft | 439 kts | 209° |
| 2026-05-05 19:54 | 43.98168 | -0.82441 | 36980 ft | 439 kts | 209° |
| 2026-05-05 19:55 | 43.92748 | -0.86326 | 36985 ft | 438 kts | 209° |
| 2026-05-05 19:55 | 43.87326 | -0.90203 | 36985 ft | 438 kts | 209° |
| 2026-05-05 19:56 | 43.81911 | -0.94084 | 36983 ft | 438 kts | 210° |
| 2026-05-05 19:56 | 43.76498 | -0.97967 | 36994 ft | 438 kts | 210° |
| 2026-05-05 19:57 | 43.71083 | -1.01825 | 37000 ft | 438 kts | 209° |
| 2026-05-05 19:57 | 43.65665 | -1.05676 | 37001 ft | 438 kts | 209° |
| 2026-05-05 19:58 | 43.60252 | -1.09518 | 36992 ft | 437 kts | 210° |
| 2026-05-05 19:58 | 43.54841 | -1.13358 | 37004 ft | 437 kts | 210° |
| 2026-05-05 19:59 | 43.49434 | -1.17185 | 37007 ft | 437 kts | 210° |
| 2026-05-05 19:59 | 43.44053 | -1.20974 | 37001 ft | 437 kts | 210° |
| 2026-05-05 20:00 | 43.38635 | -1.24780 | 36995 ft | 437 kts | 210° |
| 2026-05-05 20:00 | 43.33219 | -1.28587 | 36999 ft | 437 kts | 210° |
| 2026-05-05 20:01 | 43.27808 | -1.32381 | 37017 ft | 437 kts | 210° |
| 2026-05-05 20:01 | 43.22389 | -1.36166 | 37019 ft | 437 kts | 210° |
| 2026-05-05 20:02 | 43.16976 | -1.39944 | 37017 ft | 437 kts | 210° |
| 2026-05-05 20:02 | 43.11562 | -1.43722 | 37032 ft | 437 kts | 210° |
| 2026-05-05 20:03 | 43.06149 | -1.47491 | 37032 ft | 437 kts | 210° |
| 2026-05-05 20:03 | 43.00732 | -1.51257 | 37004 ft | 437 kts | 210° |
| 2026-05-05 20:04 | 42.95324 | -1.55018 | 37033 ft | 436 kts | 210° |
| 2026-05-05 20:04 | 42.89915 | -1.58775 | 37035 ft | 436 kts | 210° |
| 2026-05-05 20:05 | 42.84502 | -1.62524 | 37011 ft | 436 kts | 210° |
| 2026-05-05 20:05 | 42.79127 | -1.66232 | 37011 ft | 436 kts | 210° |
| 2026-05-05 20:06 | 42.73716 | -1.69959 | 37008 ft | 436 kts | 210° |
| 2026-05-05 20:06 | 42.68287 | -1.73657 | 37011 ft | 436 kts | 210° |
| 2026-05-05 20:07 | 42.62841 | -1.77297 | 37018 ft | 436 kts | 210° |
| 2026-05-05 20:07 | 42.57396 | -1.80944 | 37009 ft | 436 kts | 210° |
| 2026-05-05 20:08 | 42.51961 | -1.84590 | 37020 ft | 436 kts | 210° |
| 2026-05-05 20:08 | 42.46527 | -1.88220 | 37030 ft | 435 kts | 210° |
| 2026-05-05 20:09 | 42.41094 | -1.91849 | 37029 ft | 435 kts | 210° |
| 2026-05-05 20:09 | 42.35664 | -1.95473 | 37012 ft | 435 kts | 210° |
| 2026-05-05 20:10 | 42.30235 | -1.99091 | 37033 ft | 435 kts | 210° |
| 2026-05-05 20:10 | 42.24813 | -2.02700 | 37040 ft | 435 kts | 210° |
| 2026-05-05 20:11 | 42.20296 | -2.05679 | 37043 ft | 434 kts | 210° |
| 2026-05-05 20:11 | 42.14868 | -2.09251 | 37031 ft | 434 kts | 210° |
| 2026-05-05 20:12 | 42.09449 | -2.12823 | 37038 ft | 433 kts | 210° |
| 2026-05-05 20:12 | 42.04036 | -2.16392 | 37041 ft | 433 kts | 210° |
| 2026-05-05 20:13 | 41.98624 | -2.19952 | 37040 ft | 433 kts | 210° |
| 2026-05-05 20:13 | 41.93217 | -2.23504 | 37021 ft | 433 kts | 211° |
| 2026-05-05 20:14 | 41.87804 | -2.27043 | 37034 ft | 432 kts | 211° |
| 2026-05-05 20:14 | 41.82399 | -2.30574 | 37040 ft | 432 kts | 211° |
| 2026-05-05 20:15 | 41.77028 | -2.34083 | 36907 ft | 433 kts | 211° |
| 2026-05-05 20:15 | 41.74324 | -2.35848 | 36615 ft | 431 kts | 211° |
| 2026-05-05 20:15 | 41.71629 | -2.37603 | 36376 ft | 430 kts | 211° |
| 2026-05-05 20:15 | 41.68944 | -2.39349 | 36133 ft | 429 kts | 211° |
| 2026-05-05 20:16 | 41.66260 | -2.41093 | 35880 ft | 429 kts | 211° |
| 2026-05-05 20:16 | 41.63577 | -2.42833 | 35636 ft | 428 kts | 211° |
| 2026-05-05 20:16 | 41.60896 | -2.44572 | 35399 ft | 428 kts | 212° |
| 2026-05-05 20:16 | 41.58221 | -2.46306 | 35158 ft | 428 kts | 212° |
| 2026-05-05 20:17 | 41.55544 | -2.48037 | 34921 ft | 427 kts | 212° |
| 2026-05-05 20:17 | 41.52869 | -2.49764 | 34641 ft | 426 kts | 212° |
| 2026-05-05 20:17 | 41.50209 | -2.51483 | 34411 ft | 423 kts | 213° |
| 2026-05-05 20:17 | 41.47563 | -2.53191 | 34174 ft | 422 kts | 213° |
| 2026-05-05 20:18 | 41.44928 | -2.54891 | 33933 ft | 421 kts | 213° |
| 2026-05-05 20:18 | 41.42293 | -2.56588 | 33623 ft | 420 kts | 213° |
| 2026-05-05 20:18 | 41.39644 | -2.58293 | 32546 ft | 426 kts | 213° |
| 2026-05-05 20:18 | 41.36958 | -2.60024 | 31546 ft | 431 kts | 213° |
| 2026-05-05 20:19 | 41.34148 | -2.61533 | 30510 ft | 443 kts | 205° |
| 2026-05-05 20:19 | 41.31079 | -2.62432 | 29253 ft | 458 kts | 195° |
| 2026-05-05 20:19 | 41.27872 | -2.62606 | 28012 ft | 469 kts | 185° |
| 2026-05-05 20:19 | 41.24606 | -2.62303 | 27179 ft | 468 kts | 184° |
| 2026-05-05 20:20 | 41.21386 | -2.61989 | 26439 ft | 462 kts | 183° |
| 2026-05-05 20:20 | 41.18189 | -2.61687 | 25662 ft | 458 kts | 183° |
| 2026-05-05 20:20 | 41.15019 | -2.61401 | 24910 ft | 455 kts | 183° |
| 2026-05-05 20:20 | 41.11873 | -2.61124 | 24159 ft | 452 kts | 183° |
| 2026-05-05 20:21 | 41.08746 | -2.60850 | 23374 ft | 449 kts | 184° |
| 2026-05-05 20:21 | 41.05645 | -2.60582 | 22633 ft | 445 kts | 183° |
| 2026-05-05 20:21 | 41.02575 | -2.60312 | 21957 ft | 440 kts | 182° |
| 2026-05-05 20:21 | 40.99538 | -2.60041 | 21318 ft | 435 kts | 182° |
| 2026-05-05 20:22 | 40.96535 | -2.59772 | 20625 ft | 431 kts | 181° |
| 2026-05-05 20:22 | 40.93538 | -2.59507 | 19796 ft | 431 kts | 180° |
| 2026-05-05 20:22 | 40.90590 | -2.59247 | 19012 ft | 416 kts | 180° |
| 2026-05-05 20:22 | 40.87752 | -2.59088 | 18235 ft | 400 kts | 185° |
| 2026-05-05 20:23 | 40.85043 | -2.59582 | 17469 ft | 389 kts | 197° |
| 2026-05-05 20:23 | 40.82514 | -2.60754 | 16773 ft | 384 kts | 208° |
| 2026-05-05 20:23 | 40.80228 | -2.62534 | 16071 ft | 380 kts | 219° |
| 2026-05-05 20:23 | 40.78283 | -2.64803 | 15398 ft | 377 kts | 228° |
| 2026-05-05 20:24 | 40.76449 | -2.67275 | 14822 ft | 375 kts | 227° |
| 2026-05-05 20:24 | 40.74632 | -2.69708 | 14687 ft | 360 kts | 227° |
| 2026-05-05 20:24 | 40.72927 | -2.71978 | 14558 ft | 347 kts | 227° |
| 2026-05-05 20:24 | 40.71261 | -2.74191 | 14440 ft | 334 kts | 227° |
| 2026-05-05 20:25 | 40.69652 | -2.76320 | 14302 ft | 322 kts | 227° |
| 2026-05-05 20:25 | 40.68100 | -2.78378 | 14188 ft | 311 kts | 227° |
| 2026-05-05 20:25 | 40.66598 | -2.80368 | 14067 ft | 302 kts | 227° |
| 2026-05-05 20:25 | 40.65030 | -2.82145 | 13942 ft | 295 kts | 216° |
| 2026-05-05 20:26 | 40.63306 | -2.83551 | 13747 ft | 290 kts | 214° |
| 2026-05-05 20:26 | 40.61580 | -2.84944 | 13383 ft | 289 kts | 214° |
| 2026-05-05 20:26 | 40.59880 | -2.86312 | 13120 ft | 285 kts | 214° |
| 2026-05-05 20:26 | 40.58200 | -2.87665 | 12871 ft | 282 kts | 214° |
| 2026-05-05 20:27 | 40.56530 | -2.89010 | 12616 ft | 280 kts | 214° |
| 2026-05-05 20:27 | 40.54872 | -2.90347 | 12371 ft | 279 kts | 214° |
| 2026-05-05 20:27 | 40.53218 | -2.91681 | 12121 ft | 278 kts | 214° |
| 2026-05-05 20:27 | 40.51571 | -2.93007 | 11871 ft | 277 kts | 214° |
| 2026-05-05 20:28 | 40.49928 | -2.94326 | 11626 ft | 276 kts | 214° |
| 2026-05-05 20:28 | 40.48292 | -2.95635 | 11378 ft | 275 kts | 214° |
| 2026-05-05 20:28 | 40.46662 | -2.96940 | 11139 ft | 274 kts | 214° |
| 2026-05-05 20:28 | 40.45040 | -2.98241 | 10894 ft | 273 kts | 214° |
| 2026-05-05 20:29 | 40.43424 | -2.99537 | 10647 ft | 272 kts | 214° |
| 2026-05-05 20:29 | 40.41810 | -3.00831 | 10401 ft | 272 kts | 214° |
| 2026-05-05 20:29 | 40.40201 | -3.02120 | 10164 ft | 271 kts | 214° |
| 2026-05-05 20:29 | 40.38595 | -3.03406 | 9916 ft | 270 kts | 214° |
| 2026-05-05 20:30 | 40.36995 | -3.04687 | 9662 ft | 269 kts | 214° |
| 2026-05-05 20:30 | 40.35395 | -3.05963 | 9410 ft | 269 kts | 214° |
| 2026-05-05 20:30 | 40.33797 | -3.07242 | 9166 ft | 269 kts | 214° |
| 2026-05-05 20:30 | 40.32202 | -3.08516 | 8915 ft | 267 kts | 214° |
| 2026-05-05 20:31 | 40.30637 | -3.09764 | 8683 ft | 260 kts | 214° |
| 2026-05-05 20:31 | 40.29106 | -3.10982 | 8451 ft | 254 kts | 214° |
| 2026-05-05 20:31 | 40.27609 | -3.12172 | 8220 ft | 249 kts | 214° |
| 2026-05-05 20:31 | 40.26138 | -3.13337 | 7989 ft | 246 kts | 214° |
| 2026-05-05 20:32 | 40.24675 | -3.14493 | 7765 ft | 245 kts | 214° |
| 2026-05-05 20:32 | 40.23214 | -3.15645 | 7533 ft | 245 kts | 214° |
| 2026-05-05 20:32 | 40.21757 | -3.16795 | 7362 ft | 245 kts | 214° |
| 2026-05-05 20:32 | 40.20323 | -3.17989 | 7180 ft | 244 kts | 222° |
| 2026-05-05 20:33 | 40.19287 | -3.19687 | 7011 ft | 239 kts | 248° |
| 2026-05-05 20:33 | 40.18928 | -3.21766 | 6837 ft | 235 kts | 273° |
| 2026-05-05 20:33 | 40.19278 | -3.23789 | 6668 ft | 230 kts | 298° |
| 2026-05-05 20:33 | 40.20224 | -3.25437 | 6496 ft | 221 kts | 315° |
| 2026-05-05 20:34 | 40.21273 | -3.26859 | 6331 ft | 219 kts | 314° |
| 2026-05-05 20:34 | 40.22327 | -3.28297 | 6150 ft | 219 kts | 314° |
| 2026-05-05 20:34 | 40.23381 | -3.29734 | 5974 ft | 219 kts | 314° |
| 2026-05-05 20:34 | 40.24436 | -3.31176 | 5786 ft | 219 kts | 314° |
| 2026-05-05 20:35 | 40.25303 | -3.32790 | 5617 ft | 219 kts | 290° |
| 2026-05-05 20:35 | 40.25370 | -3.34771 | 5436 ft | 224 kts | 256° |
| 2026-05-05 20:35 | 40.24559 | -3.36503 | 5261 ft | 229 kts | 223° |
| 2026-05-05 20:35 | 40.23117 | -3.37395 | 5080 ft | 235 kts | 188° |
| 2026-05-05 20:36 | 40.21499 | -3.37134 | 4901 ft | 238 kts | 154° |
| 2026-05-05 20:36 | 40.20085 | -3.35998 | 4722 ft | 240 kts | 142° |
| 2026-05-05 20:36 | 40.18750 | -3.34683 | 4548 ft | 240 kts | 141° |
| 2026-05-05 20:36 | 40.17484 | -3.33274 | 4362 ft | 238 kts | 126° |
| 2026-05-05 20:37 | 40.16824 | -3.31360 | 4185 ft | 230 kts | 92° |
| 2026-05-05 20:37 | 40.17025 | -3.29356 | 4051 ft | 221 kts | 60° |
| 2026-05-05 20:37 | 40.18008 | -3.27904 | 4001 ft | 213 kts | 25° |
| 2026-05-05 20:37 | 40.19414 | -3.27442 | 4000 ft | 209 kts | 354° |
| 2026-05-05 20:38 | 40.20778 | -3.27965 | 3991 ft | 200 kts | 327° |
| 2026-05-05 20:38 | 40.21809 | -3.29090 | 3996 ft | 191 kts | 318° |
| 2026-05-05 20:38 | 40.22796 | -3.30266 | 3993 ft | 192 kts | 319° |
| 2026-05-05 20:38 | 40.23787 | -3.31445 | 4006 ft | 194 kts | 319° |
| 2026-05-05 20:39 | 40.24779 | -3.32624 | 3997 ft | 192 kts | 319° |
| 2026-05-05 20:39 | 40.25772 | -3.33806 | 4009 ft | 193 kts | 319° |
| 2026-05-05 20:39 | 40.26763 | -3.34987 | 4006 ft | 192 kts | 319° |
| 2026-05-05 20:39 | 40.27682 | -3.36258 | 4005 ft | 192 kts | 315° |
| 2026-05-05 20:40 | 40.28654 | -3.37458 | 4007 ft | 192 kts | 321° |
| 2026-05-05 20:40 | 40.29686 | -3.38561 | 4007 ft | 192 kts | 323° |
| 2026-05-05 20:40 | 40.30740 | -3.39638 | 4009 ft | 193 kts | 323° |
| 2026-05-05 20:40 | 40.31798 | -3.40710 | 4008 ft | 192 kts | 323° |
| 2026-05-05 20:41 | 40.32825 | -3.41747 | 4003 ft | 180 kts | 324° |
| 2026-05-05 20:41 | 40.33788 | -3.42720 | 4000 ft | 169 kts | 324° |
| 2026-05-05 20:41 | 40.34699 | -3.43639 | 4024 ft | 162 kts | 323° |
| 2026-05-05 20:41 | 40.35578 | -3.44527 | 4010 ft | 158 kts | 323° |
| 2026-05-05 20:42 | 40.36442 | -3.45400 | 4008 ft | 156 kts | 324° |
| 2026-05-05 20:42 | 40.37303 | -3.46269 | 4007 ft | 156 kts | 324° |
| 2026-05-05 20:42 | 40.38164 | -3.47140 | 3928 ft | 156 kts | 324° |
| 2026-05-05 20:42 | 40.39025 | -3.48011 | 3773 ft | 156 kts | 324° |
| 2026-05-05 20:43 | 40.39882 | -3.48878 | 3591 ft | 154 kts | 324° |
| 2026-05-05 20:43 | 40.40708 | -3.49714 | 3402 ft | 147 kts | 324° |
| 2026-05-05 20:43 | 40.41508 | -3.50524 | 3202 ft | 145 kts | 324° |
| 2026-05-05 20:43 | 40.42301 | -3.51326 | 2953 ft | 144 kts | 320° |
| 2026-05-05 20:44 | 40.43104 | -3.52141 | 2772 ft | 145 kts | 320° |
| 2026-05-05 20:44 | 40.43911 | -3.52949 | 2625 ft | 147 kts | 320° |
| 2026-05-05 20:44 | 40.44711 | -3.53774 | 2384 ft | 144 kts | 320° |
| 2026-05-05 20:44 | 40.45500 | -3.54567 | 2190 ft | 143 kts | 321° |
| 2026-05-05 20:45 | 40.47047 | -3.56135 | 1980 ft | 122 kts | 321° |
| 2026-05-05 20:45 | 40.47580 | -3.56680 | 1996 ft | 72 kts | 322° |
| 2026-05-05 20:45 | 40.47884 | -3.56990 | 1997 ft | 48 kts | 322° |
| 2026-05-05 20:46 | 40.48077 | -3.57201 | 2003 ft | 25 kts | 312° |
| 2026-05-05 20:46 | 40.48142 | -3.57336 | 2004 ft | 14 kts | 297° |
| 2026-05-05 20:46 | 40.48172 | -3.57445 | 2002 ft | 12 kts | 269° |
| 2026-05-05 20:46 | 40.48109 | -3.57484 | 2001 ft | 13 kts | 153° |
| 2026-05-05 20:47 | 40.48035 | -3.57409 | 2003 ft | 14 kts | 141° |
| 2026-05-05 20:47 | 40.47963 | -3.57337 | 2004 ft | 11 kts | 147° |
| 2026-05-05 20:47 | 40.47910 | -3.57377 | 2004 ft | 11 kts | 268° |
| 2026-05-05 20:47 | 40.47968 | -3.57460 | 2003 ft | 15 kts | 322° |
| 2026-05-05 20:48 | 40.48065 | -3.57560 | 2000 ft | 20 kts | 322° |
| 2026-05-05 20:48 | 40.48188 | -3.57684 | 1997 ft | 25 kts | 322° |
| 2026-05-05 20:48 | 40.48302 | -3.57799 | 1993 ft | 18 kts | 323° |
| 2026-05-05 20:48 | 40.48414 | -3.57903 | 1992 ft | 21 kts | 328° |
| 2026-05-05 20:49 | 40.48500 | -3.57981 | 1999 ft | 11 kts | 309° |
| 2026-05-05 20:49 | 40.48512 | -3.58098 | 2004 ft | 15 kts | 270° |
| 2026-05-05 20:49 | 40.48511 | -3.58235 | 2010 ft | 16 kts | 269° |
| 2026-05-05 20:49 | 40.48511 | -3.58390 | 2015 ft | 19 kts | 269° |
| 2026-05-05 20:50 | 40.48510 | -3.58559 | 2020 ft | 18 kts | 269° |
| 2026-05-05 20:50 | 40.48510 | -3.58671 | 2027 ft | 19 kts | 270° |
| 2026-05-05 20:50 | 40.48538 | -3.58805 | 2027 ft | 11 kts | 340° |
| 2026-05-05 20:50 | 40.48632 | -3.58809 | 2027 ft | 15 kts | 359° |
| 2026-05-05 20:51 | 40.48752 | -3.58810 | 2028 ft | 19 kts | 359° |
| 2026-05-05 20:51 | 40.48892 | -3.58811 | 2022 ft | 21 kts | 0° |
| 2026-05-05 20:51 | 40.49010 | -3.58812 | 2022 ft | 13 kts | 359° |
| 2026-05-05 20:51 | 40.49099 | -3.58813 | 2022 ft | 7 kts | 359° |
| 2026-05-05 20:52 | 40.49120 | -3.58872 | 2024 ft | 7 kts | 272° |
| 2026-05-05 20:52 | 40.49120 | -3.58925 | 2028 ft | 5 kts | 269° |
| 2026-05-05 20:52 | 40.49120 | -3.58953 | 2028 ft | 1 kts | 269° |
| 2026-05-05 20:52 | 40.49119 | -3.58965 | 2024 ft | 0 kts | 269° |
| 2026-05-05 20:53 | 40.49119 | -3.58966 | 2024 ft | 0 kts | 269° |